createdAt,value
2022-10-12T00:10:55.557Z,16.70
2022-10-12T00:13:43.867Z,16.50
2022-10-12T00:16:32.425Z,16.30
2022-10-12T00:19:18.223Z,16.30
2022-10-12T00:22:03.869Z,16.40
2022-10-12T00:24:49.783Z,16.80
2022-10-12T00:27:36.187Z,16.90
2022-10-12T00:30:22.065Z,17.00
2022-10-12T00:33:07.919Z,17.10
2022-10-12T00:35:54.960Z,17.10
2022-10-12T00:38:40.687Z,16.90
2022-10-12T00:41:30.002Z,16.60
2022-10-12T00:44:33.923Z,16.70
2022-10-12T00:47:33.877Z,16.90
2022-10-12T00:50:28.940Z,16.90
2022-10-12T00:53:21.275Z,16.80
2022-10-12T00:56:12.898Z,16.80
2022-10-12T00:59:01.539Z,16.90
2022-10-12T01:01:47.185Z,16.80
2022-10-12T01:04:33.382Z,16.90
2022-10-12T01:07:18.915Z,16.90
2022-10-12T01:10:05.495Z,16.90
2022-10-12T01:12:51.223Z,17.00
2022-10-12T01:15:50.408Z,17.10
2022-10-12T01:18:58.980Z,17.10
2022-10-12T01:21:57.327Z,17.00
2022-10-12T01:25:00.204Z,16.80
2022-10-12T01:27:55.534Z,16.50
2022-10-12T01:30:45.417Z,16.50
2022-10-12T01:33:44.561Z,16.50
2022-10-12T01:36:36.003Z,16.40
2022-10-12T01:39:35.100Z,16.40
2022-10-12T01:42:27.149Z,16.40
2022-10-12T01:45:19.270Z,16.40
2022-10-12T01:48:05.720Z,16.40
2022-10-12T01:50:56.167Z,16.30
2022-10-12T01:53:44.504Z,16.20
2022-10-12T01:56:44.742Z,16.20
2022-10-12T01:59:30.180Z,16.20
2022-10-12T02:02:46.357Z,16.30
2022-10-12T02:05:37.981Z,16.30
2022-10-12T02:09:01.846Z,16.40
2022-10-12T02:11:50.536Z,16.40
2022-10-12T02:14:53.808Z,16.40
2022-10-12T02:17:42.235Z,16.40
2022-10-12T02:20:28.118Z,16.40
2022-10-12T02:23:14.797Z,16.50
2022-10-12T02:26:01.988Z,16.40
2022-10-12T02:28:48.864Z,16.40
2022-10-12T02:31:53.340Z,16.40
2022-10-12T02:34:56.900Z,16.30
2022-10-12T02:37:47.935Z,16.30
2022-10-12T02:40:54.414Z,16.30
2022-10-12T02:43:59.800Z,16.30
2022-10-12T02:46:47.445Z,16.40
2022-10-12T02:49:37.921Z,16.40
2022-10-12T02:52:24.509Z,16.50
2022-10-12T02:55:11.604Z,16.60
2022-10-12T02:57:57.580Z,16.40
2022-10-12T03:00:43.120Z,16.60
2022-10-12T03:03:29.278Z,16.60
2022-10-12T03:06:15.049Z,16.50
2022-10-12T03:09:01.606Z,16.40
2022-10-12T03:11:47.791Z,16.40
2022-10-12T03:14:35.145Z,16.40
2022-10-12T03:17:20.916Z,16.50
2022-10-12T03:20:07.038Z,16.60
2022-10-12T03:22:53.589Z,16.70
2022-10-12T03:25:39.153Z,16.60
2022-10-12T03:28:25.012Z,16.60
2022-10-12T03:31:10.903Z,16.50
2022-10-12T03:33:56.549Z,16.60
2022-10-12T03:36:42.032Z,16.60
2022-10-12T03:39:27.535Z,16.50
2022-10-12T03:42:13.974Z,16.50
2022-10-12T03:44:59.565Z,16.40
2022-10-12T03:47:45.571Z,16.20
2022-10-12T03:50:31.116Z,16.30
2022-10-12T03:53:17.331Z,16.30
2022-10-12T03:56:02.993Z,16.40
2022-10-12T03:58:48.754Z,16.30
2022-10-12T04:01:34.590Z,16.20
2022-10-12T04:04:20.146Z,16.20
2022-10-12T04:07:05.738Z,16.10
2022-10-12T04:09:51.316Z,16.00
2022-10-12T04:12:38.375Z,15.90
2022-10-12T04:15:24.053Z,15.80
2022-10-12T04:18:09.396Z,15.90
2022-10-12T04:20:55.089Z,15.90
2022-10-12T04:23:41.281Z,15.90
2022-10-12T04:26:26.957Z,15.90
2022-10-12T04:29:14.275Z,16.00
2022-10-12T04:31:59.743Z,16.00
2022-10-12T04:34:45.247Z,16.10
2022-10-12T04:37:30.796Z,16.20
2022-10-12T04:40:16.331Z,16.30
2022-10-12T04:43:02.084Z,16.20
2022-10-12T04:45:58.789Z,16.20
2022-10-12T04:48:44.532Z,16.30
2022-10-12T04:51:30.112Z,16.40
2022-10-12T04:54:15.811Z,16.40
2022-10-12T04:57:01.493Z,16.30
2022-10-12T04:59:46.819Z,16.30
2022-10-12T05:02:32.590Z,16.20
2022-10-12T05:05:18.095Z,16.20
2022-10-12T05:08:05.136Z,16.20
2022-10-12T05:10:50.822Z,16.20
2022-10-12T05:13:36.250Z,16.20
2022-10-12T05:16:22.121Z,16.10
2022-10-12T05:19:07.861Z,16.10
2022-10-12T05:21:55.413Z,16.00
2022-10-12T05:24:41.161Z,15.90
2022-10-12T05:27:26.691Z,15.90
2022-10-12T05:30:13.214Z,15.80
2022-10-12T05:32:59.124Z,15.80
2022-10-12T05:35:48.199Z,15.70
2022-10-12T05:38:35.250Z,15.80
2022-10-12T05:41:21.151Z,15.80
2022-10-12T05:44:07.130Z,15.80
2022-10-12T05:46:56.072Z,15.80
2022-10-12T05:49:43.670Z,15.80
2022-10-12T05:52:29.826Z,15.70
2022-10-12T05:55:15.673Z,15.70
2022-10-12T05:58:01.571Z,15.80
2022-10-12T06:00:47.216Z,16.00
2022-10-12T06:03:35.151Z,16.00
2022-10-12T06:06:22.263Z,16.10
2022-10-12T06:09:08.295Z,16.20
2022-10-12T06:11:54.261Z,16.20
2022-10-12T06:14:40.138Z,16.20
2022-10-12T06:17:25.592Z,16.20
2022-10-12T06:20:11.546Z,16.20
2022-10-12T06:22:57.469Z,16.20
2022-10-12T06:25:43.092Z,16.20
2022-10-12T06:28:29.043Z,16.10
2022-10-12T06:31:15.046Z,16.20
2022-10-12T06:34:03.416Z,16.20
2022-10-12T06:36:49.775Z,16.10
2022-10-12T06:39:35.672Z,16.20
2022-10-12T06:42:21.358Z,16.40
2022-10-12T06:45:11.509Z,16.50
2022-10-12T06:47:57.784Z,16.40
2022-10-12T06:50:43.989Z,16.50
2022-10-12T06:53:31.315Z,16.50
2022-10-12T06:56:17.027Z,16.50
2022-10-12T06:59:02.753Z,16.70
2022-10-12T07:01:50.336Z,16.90
2022-10-12T07:04:37.254Z,17.10
2022-10-12T07:07:22.933Z,17.20
2022-10-12T07:10:09.625Z,17.30
2022-10-12T07:12:55.365Z,17.40
2022-10-12T07:15:40.712Z,17.30
2022-10-12T07:18:26.564Z,17.20
2022-10-12T07:21:12.474Z,17.20
2022-10-12T07:23:57.808Z,17.30
2022-10-12T07:26:43.397Z,17.40
2022-10-12T07:29:33.721Z,17.70
2022-10-12T07:32:21.361Z,17.90
2022-10-12T07:35:07.777Z,18.20
2022-10-12T07:37:53.293Z,18.70
2022-10-12T07:40:39.449Z,19.20
2022-10-12T07:43:25.566Z,19.80
2022-10-12T07:46:11.571Z,20.60
2022-10-12T07:48:58.598Z,21.40
2022-10-12T07:51:46.327Z,22.00
2022-10-12T07:54:32.843Z,22.40
2022-10-12T07:57:18.322Z,22.50
2022-10-12T08:00:04.755Z,22.80
2022-10-12T08:02:57.924Z,23.40
2022-10-12T08:05:43.567Z,23.80
2022-10-12T08:08:31.028Z,23.40
2022-10-12T08:11:17.606Z,23.10
2022-10-12T08:14:03.673Z,22.90
2022-10-12T08:16:49.578Z,23.40
2022-10-12T08:19:36.584Z,24.30
2022-10-12T08:22:22.995Z,23.40
2022-10-12T08:25:08.909Z,23.10
2022-10-12T08:27:54.971Z,22.20
2022-10-12T08:30:43.494Z,22.30
2022-10-12T08:33:30.392Z,22.80
2022-10-12T08:36:16.104Z,23.40
2022-10-12T08:39:01.910Z,23.50
2022-10-12T08:42:17.911Z,23.90
2022-10-12T08:45:14.143Z,24.50
2022-10-12T08:48:14.690Z,24.70
2022-10-12T08:51:08.422Z,24.80
2022-10-12T08:54:13.403Z,25.40
2022-10-12T08:57:00.519Z,25.60
2022-10-12T08:59:47.038Z,26.00
2022-10-12T09:03:03.451Z,25.80
2022-10-12T09:06:28.632Z,25.90
2022-10-12T09:09:20.078Z,26.20
2022-10-12T09:12:21.304Z,27.30
2022-10-12T09:15:21.399Z,28.20
2022-10-12T09:18:18.495Z,26.20
2022-10-12T09:21:07.283Z,27.10
2022-10-12T09:23:56.726Z,27.10
2022-10-12T09:26:47.219Z,27.80
2022-10-12T09:29:35.779Z,28.00
2022-10-12T09:32:40.910Z,25.70
2022-10-12T09:35:27.738Z,27.10
2022-10-12T09:38:13.497Z,26.50
2022-10-12T09:40:59.013Z,27.50
2022-10-12T09:43:55.235Z,28.00
2022-10-12T09:47:01.746Z,26.70
2022-10-12T09:50:00.923Z,25.20
2022-10-12T09:52:46.970Z,24.40
2022-10-12T09:55:32.847Z,24.40
2022-10-12T09:58:20.966Z,24.90
2022-10-12T10:01:32.405Z,26.50
2022-10-12T10:04:26.972Z,24.40
2022-10-12T10:10:58.859Z,23.80
2022-10-12T10:13:49.868Z,22.90
2022-10-12T10:16:48.446Z,21.60
2022-10-12T10:19:35.633Z,21.10
2022-10-12T10:22:23.806Z,21.80
2022-10-12T10:25:22.949Z,21.50
2022-10-12T10:28:28.602Z,21.60
2022-10-12T10:31:17.399Z,22.60
2022-10-12T10:34:18.494Z,22.60
2022-10-12T10:37:06.161Z,22.10
2022-10-12T10:39:55.275Z,22.20
2022-10-12T10:42:42.083Z,22.20
2022-10-12T10:45:31.923Z,22.60
2022-10-12T10:48:22.134Z,22.00
2022-10-12T10:51:07.798Z,22.00
2022-10-12T10:53:54.176Z,22.50
2022-10-12T10:56:40.449Z,22.70
2022-10-12T10:59:47.369Z,22.60
2022-10-12T11:02:56.553Z,22.10
2022-10-12T11:05:51.368Z,22.20
2022-10-12T11:08:38.464Z,22.00
2022-10-12T11:11:28.414Z,21.80
2022-10-12T11:14:25.728Z,21.60
2022-10-12T11:17:23.843Z,21.60
2022-10-12T11:20:31.888Z,21.50
2022-10-12T11:23:22.477Z,21.90
2022-10-12T11:26:15.919Z,21.50
2022-10-12T11:29:01.850Z,21.70
2022-10-12T11:31:58.960Z,21.60
2022-10-12T11:34:52.779Z,21.40
2022-10-12T11:37:44.112Z,21.50
2022-10-12T11:41:05.467Z,21.50
2022-10-12T11:43:57.405Z,22.00
2022-10-12T11:47:07.168Z,22.60
2022-10-12T11:50:33.162Z,22.30
2022-10-12T11:53:37.090Z,21.90
2022-10-12T11:56:43.738Z,22.60
2022-10-12T11:59:44.065Z,23.00
2022-10-12T12:02:44.374Z,23.10
2022-10-12T12:05:33.626Z,22.30
2022-10-12T12:08:43.764Z,22.30
2022-10-12T12:11:34.858Z,22.50
2022-10-12T12:14:26.316Z,23.00
2022-10-12T12:17:32.131Z,23.40
2022-10-12T12:20:43.084Z,22.40
2022-10-12T12:23:35.591Z,22.10
2022-10-12T12:26:25.908Z,21.80
2022-10-12T12:29:17.530Z,22.20
2022-10-12T12:32:03.436Z,22.10
2022-10-12T12:35:00.529Z,22.10
2022-10-12T12:37:47.243Z,22.00
2022-10-12T12:40:34.149Z,22.00
2022-10-12T12:43:31.397Z,21.90
2022-10-12T12:46:19.464Z,22.30
2022-10-12T12:49:24.149Z,22.50
2022-10-12T12:52:24.770Z,22.50
2022-10-12T12:55:20.493Z,22.80
2022-10-12T12:58:27.473Z,22.80
2022-10-12T13:01:32.997Z,23.00
2022-10-12T13:04:27.769Z,22.70
2022-10-12T13:07:19.625Z,23.10
2022-10-12T13:10:38.750Z,23.10
2022-10-12T13:13:27.892Z,22.50
2022-10-12T13:19:56.116Z,22.50
2022-10-12T13:22:42.393Z,22.60
2022-10-12T13:25:36.554Z,22.90
2022-10-12T13:28:28.308Z,22.90
2022-10-12T13:31:47.102Z,23.10
2022-10-12T13:34:44.099Z,23.30
2022-10-12T13:37:34.644Z,23.40
2022-10-12T13:40:38.875Z,23.10
2022-10-12T13:43:50.478Z,23.10
2022-10-12T13:46:46.053Z,23.00
2022-10-12T13:49:35.221Z,23.10
2022-10-12T13:52:34.943Z,23.70
2022-10-12T13:55:29.282Z,23.40
2022-10-12T13:58:26.230Z,23.60
2022-10-12T14:01:13.117Z,23.20
2022-10-12T14:04:04.872Z,22.80
2022-10-12T14:07:17.880Z,23.00
2022-10-12T14:10:09.137Z,23.50
2022-10-12T14:12:55.951Z,23.80
2022-10-12T14:15:42.337Z,23.60
2022-10-12T14:18:53.679Z,23.70
2022-10-12T14:21:47.288Z,23.40
2022-10-12T14:24:36.245Z,23.50
2022-10-12T14:27:28.691Z,23.30
2022-10-12T14:30:19.537Z,23.10
2022-10-12T14:33:19.551Z,23.90
2022-10-12T14:36:27.007Z,23.20
2022-10-12T14:39:14.414Z,23.10
2022-10-12T14:42:17.640Z,23.40
2022-10-12T14:45:06.476Z,23.40
2022-10-12T14:47:52.925Z,23.40
2022-10-12T14:50:39.550Z,23.40
2022-10-12T14:53:29.260Z,23.50
2022-10-12T14:56:19.505Z,23.10
2022-10-12T14:59:05.663Z,22.60
2022-10-12T15:01:59.882Z,22.60
2022-10-12T15:04:45.967Z,22.60
2022-10-12T15:07:34.150Z,22.40
2022-10-12T15:10:22.645Z,22.50
2022-10-12T15:13:13.285Z,23.10
2022-10-12T15:16:01.300Z,23.30
2022-10-12T15:18:46.898Z,23.00
2022-10-12T15:21:32.746Z,22.70
2022-10-12T15:24:18.250Z,22.60
2022-10-12T15:27:03.903Z,22.70
2022-10-12T15:29:50.903Z,23.10
2022-10-12T15:32:36.489Z,23.20
2022-10-12T15:35:26.266Z,23.20
2022-10-12T15:38:14.156Z,23.10
2022-10-12T15:41:00.313Z,23.10
2022-10-12T15:43:46.064Z,23.10
2022-10-12T15:46:31.963Z,22.80
2022-10-12T15:49:19.684Z,23.00
2022-10-12T15:52:12.122Z,22.90
2022-10-12T15:54:57.876Z,23.00
2022-10-12T15:57:43.958Z,23.20
2022-10-12T16:00:32.768Z,23.10
2022-10-12T16:03:38.852Z,22.90
2022-10-12T16:06:25.713Z,22.70
2022-10-12T16:09:11.186Z,22.60
2022-10-12T16:11:56.545Z,22.70
2022-10-12T16:14:42.242Z,22.70
2022-10-12T16:17:28.130Z,22.60
2022-10-12T16:20:13.796Z,22.70
2022-10-12T16:23:00.441Z,22.80
2022-10-12T16:25:46.227Z,22.80
2022-10-12T16:28:31.939Z,22.50
2022-10-12T16:31:18.169Z,22.50
2022-10-12T16:34:04.033Z,22.60
2022-10-12T16:36:49.577Z,22.40
2022-10-12T16:39:34.939Z,22.20
2022-10-12T16:42:21.524Z,22.10
2022-10-12T16:45:08.001Z,22.10
2022-10-12T16:47:54.120Z,22.30
2022-10-12T16:50:40.902Z,22.20
2022-10-12T16:53:26.700Z,22.00
2022-10-12T16:56:12.565Z,21.80
2022-10-12T16:58:59.063Z,21.80
2022-10-12T17:01:44.871Z,21.80
2022-10-12T17:04:30.609Z,21.70
2022-10-12T17:07:17.012Z,21.30
2022-10-12T17:10:02.822Z,21.20
2022-10-12T17:12:48.154Z,21.40
2022-10-12T17:15:34.082Z,21.50
2022-10-12T17:18:19.440Z,21.40
2022-10-12T17:21:05.222Z,21.30
2022-10-12T17:23:51.136Z,21.40
2022-10-12T17:26:40.240Z,21.80
2022-10-12T17:29:29.054Z,22.00
2022-10-12T17:32:15.256Z,22.10
2022-10-12T17:35:01.222Z,22.00
2022-10-12T17:37:46.741Z,22.10
2022-10-12T17:40:33.321Z,22.00
2022-10-12T17:43:19.423Z,21.90
2022-10-12T17:46:06.414Z,21.80
2022-10-12T17:48:52.277Z,21.90
2022-10-12T17:51:38.518Z,21.80
2022-10-12T17:54:26.873Z,21.40
2022-10-12T17:57:12.463Z,21.20
2022-10-12T17:59:58.192Z,21.10
2022-10-12T18:02:44.580Z,21.00
2022-10-12T18:05:30.280Z,19.30
2022-10-12T18:08:15.745Z,21.10
2022-10-12T18:11:02.988Z,21.40
2022-10-12T18:13:51.874Z,21.30
2022-10-12T18:16:37.980Z,21.20
2022-10-12T18:19:24.458Z,21.20
2022-10-12T18:22:10.224Z,21.00
2022-10-12T18:24:55.778Z,20.90
2022-10-12T18:27:42.096Z,20.90
2022-10-12T18:30:27.812Z,20.90
2022-10-12T18:33:14.357Z,20.80
2022-10-12T18:36:04.774Z,20.70
2022-10-12T18:38:50.656Z,20.60
2022-10-12T18:41:36.547Z,20.60
2022-10-12T18:44:22.863Z,20.40
2022-10-12T18:47:12.114Z,20.40
2022-10-12T18:49:57.937Z,20.10
2022-10-12T18:52:43.524Z,20.40
2022-10-12T18:55:29.476Z,20.30
2022-10-12T18:58:14.970Z,20.30
2022-10-12T19:01:00.456Z,20.20
2022-10-12T19:03:46.835Z,20.10
2022-10-12T19:06:34.905Z,20.10
2022-10-12T19:09:20.752Z,20.00
2022-10-12T19:12:06.486Z,20.00
2022-10-12T19:14:52.381Z,20.00
2022-10-12T19:17:38.385Z,20.00
2022-10-12T19:20:23.928Z,20.00
2022-10-12T19:23:09.384Z,19.80
2022-10-12T19:25:54.965Z,19.80
2022-10-12T19:28:40.681Z,19.90
2022-10-12T19:31:29.005Z,19.80
2022-10-12T19:34:18.139Z,19.60
2022-10-12T19:37:03.941Z,19.50
2022-10-12T19:39:49.608Z,19.60
2022-10-12T19:42:39.700Z,19.60
2022-10-12T19:45:25.438Z,19.60
2022-10-12T19:48:11.750Z,19.70
2022-10-12T19:51:03.398Z,19.60
2022-10-12T19:53:52.321Z,19.60
2022-10-12T19:56:37.751Z,19.50
2022-10-12T19:59:23.241Z,19.50
2022-10-12T20:02:10.599Z,19.50
2022-10-12T20:04:57.307Z,19.60
2022-10-12T20:07:43.054Z,19.60
2022-10-12T20:10:28.735Z,19.60
2022-10-12T20:13:14.925Z,19.50
2022-10-12T20:16:01.161Z,19.60
2022-10-12T20:18:47.457Z,19.50
2022-10-12T20:21:33.666Z,19.30
2022-10-12T20:24:19.445Z,19.30
2022-10-12T20:27:05.478Z,19.40
2022-10-12T20:29:52.262Z,19.20
2022-10-12T20:32:37.755Z,19.30
2022-10-12T20:35:23.531Z,19.40
2022-10-12T20:38:09.668Z,19.20
2022-10-12T20:41:10.137Z,18.20
2022-10-12T20:43:57.394Z,19.40
2022-10-12T20:46:45.857Z,19.50
2022-10-12T20:49:31.542Z,19.40
2022-10-12T20:52:17.531Z,19.50
2022-10-12T20:55:03.963Z,19.50
2022-10-12T20:57:49.540Z,19.40
2022-10-12T21:00:34.954Z,19.40
2022-10-12T21:03:21.372Z,19.30
2022-10-12T21:06:12.469Z,19.20
2022-10-12T21:08:58.426Z,19.20
2022-10-12T21:11:44.251Z,19.20
2022-10-12T21:14:29.882Z,19.20
2022-10-12T21:17:15.518Z,19.20
2022-10-12T21:20:01.455Z,18.90
2022-10-12T21:22:46.707Z,18.80
2022-10-12T21:25:32.241Z,18.70
2022-10-12T21:28:18.025Z,18.70
2022-10-12T21:31:03.890Z,18.70
2022-10-12T21:33:50.393Z,18.50
2022-10-12T21:36:36.763Z,18.50
2022-10-12T21:39:22.594Z,18.60
2022-10-12T21:42:09.501Z,18.60
2022-10-12T21:44:54.841Z,18.60
2022-10-12T21:47:40.437Z,18.50
2022-10-12T21:50:26.479Z,18.50
2022-10-12T21:53:13.774Z,18.50
2022-10-12T21:55:59.297Z,18.60
2022-10-12T21:58:45.372Z,18.80
2022-10-12T22:01:36.515Z,18.70
2022-10-12T22:04:21.825Z,18.70
2022-10-12T22:07:07.747Z,18.70
2022-10-12T22:09:53.237Z,18.70
2022-10-12T22:12:40.172Z,18.70
2022-10-12T22:15:27.345Z,18.70
2022-10-12T22:18:13.707Z,18.70
2022-10-12T22:21:06.852Z,18.70
2022-10-12T22:23:53.110Z,18.70
2022-10-12T22:26:40.612Z,18.70
2022-10-12T22:29:25.922Z,18.60
2022-10-12T22:32:11.682Z,18.60
2022-10-12T22:34:59.135Z,18.60
2022-10-12T22:37:58.588Z,18.60
2022-10-12T22:41:16.993Z,18.50
2022-10-12T22:44:05.262Z,18.40
2022-10-12T22:46:51.325Z,18.40
2022-10-12T22:49:37.665Z,18.40
2022-10-12T22:52:23.550Z,18.40
2022-10-12T22:55:09.332Z,18.40
2022-10-12T22:57:54.832Z,18.40
2022-10-12T23:00:40.785Z,18.40
2022-10-12T23:03:26.830Z,18.30
2022-10-12T23:06:13.423Z,18.20
2022-10-12T23:08:58.951Z,18.20
2022-10-12T23:11:44.602Z,18.10
2022-10-12T23:14:30.478Z,18.20
2022-10-12T23:17:16.048Z,18.20
2022-10-12T23:20:01.565Z,18.20
2022-10-12T23:22:47.573Z,18.10
2022-10-12T23:25:33.421Z,18.00
2022-10-12T23:28:20.456Z,18.00
2022-10-12T23:31:08.194Z,18.00
2022-10-12T23:34:01.026Z,17.90
2022-10-12T23:36:46.505Z,17.90
2022-10-12T23:39:32.500Z,17.80
2022-10-12T23:42:18.248Z,17.70
2022-10-12T23:45:04.319Z,17.70
2022-10-12T23:47:49.955Z,17.70
2022-10-12T23:50:35.676Z,17.60
2022-10-12T23:53:23.641Z,17.60
2022-10-12T23:56:09.681Z,17.60
2022-10-12T23:58:55.443Z,17.50
